sensor_id;sensor_type;location;lat;lon;timestamp;P1;durP1;ratioP1;P2;durP2;ratioP2
72123;SDS011;63818;37.134;-8.548;2023-03-01T00:00:46;11.1;;;5.7;;
72123;SDS011;63818;37.134;-8.548;2023-03-01T00:05:32;12.9;;;6.5;;
72123;SDS011;63818;37.134;-8.548;2023-03-01T00:10:21;14.5;;;7.1;;
72123;SDS011;63818;37.134;-8.548;2023-03-01T00:15:07;16.1;;;7.1;;
72123;SDS011;63818;37.134;-8.548;2023-03-01T00:19:55;15.8;;;7.7;;
72123;SDS011;63818;37.134;-8.548;2023-03-01T00:24:41;12.9;;;7.3;;
72123;SDS011;63818;37.134;-8.548;2023-03-01T00:29:29;15.1;;;6.7;;
72123;SDS011;63818;37.134;-8.548;2023-03-01T00:34:17;16.9;;;6.8;;
72123;SDS011;63818;37.134;-8.548;2023-03-01T00:39:04;13.9;;;7.0;;
72123;SDS011;63818;37.134;-8.548;2023-03-01T00:43:53;12.6;;;6.9;;
72123;SDS011;63818;37.134;-8.548;2023-03-01T00:48:40;13.1;;;6.5;;
72123;SDS011;63818;37.134;-8.548;2023-03-01T00:53:27;12.5;;;6.4;;
72123;SDS011;63818;37.134;-8.548;2023-03-01T00:58:12;11.7;;;6.0;;
72123;SDS011;63818;37.134;-8.548;2023-03-01T01:02:58;11.8;;;6.1;;
72123;SDS011;63818;37.134;-8.548;2023-03-01T01:07:44;12.6;;;6.4;;
72123;SDS011;63818;37.134;-8.548;2023-03-01T01:12:32;13.9;;;6.5;;
72123;SDS011;63818;37.134;-8.548;2023-03-01T01:17:19;14.7;;;6.4;;
72123;SDS011;63818;37.134;-8.548;2023-03-01T01:22:05;13.6;;;6.2;;
72123;SDS011;63818;37.134;-8.548;2023-03-01T01:26:52;13.8;;;6.3;;
72123;SDS011;63818;37.134;-8.548;2023-03-01T01:31:39;13.9;;;6.4;;
72123;SDS011;63818;37.134;-8.548;2023-03-01T01:36:29;13.5;;;5.9;;
72123;SDS011;63818;37.134;-8.548;2023-03-01T01:41:15;14.2;;;5.7;;
72123;SDS011;63818;37.134;-8.548;2023-03-01T01:46:03;12.7;;;5.9;;
72123;SDS011;63818;37.134;-8.548;2023-03-01T01:50:51;13.6;;;5.9;;
72123;SDS011;63818;37.134;-8.548;2023-03-01T01:55:42;14.1;;;5.9;;
72123;SDS011;63818;37.134;-8.548;2023-03-01T02:00:31;13.7;;;5.9;;
72123;SDS011;63818;37.134;-8.548;2023-03-01T02:05:18;13.1;;;5.9;;
72123;SDS011;63818;37.134;-8.548;2023-03-01T02:10:10;11.8;;;5.9;;
72123;SDS011;63818;37.134;-8.548;2023-03-01T02:14:56;13.1;;;5.9;;
72123;SDS011;63818;37.134;-8.548;2023-03-01T02:19:47;14.9;;;5.9;;
72123;SDS011;63818;37.134;-8.548;2023-03-01T02:24:40;15.4;;;6.4;;
72123;SDS011;63818;37.134;-8.548;2023-03-01T02:29:34;12.9;;;6.4;;
72123;SDS011;63818;37.134;-8.548;2023-03-01T02:34:21;11.5;;;6.0;;
72123;SDS011;63818;37.134;-8.548;2023-03-01T02:39:09;14.1;;;6.1;;
72123;SDS011;63818;37.134;-8.548;2023-03-01T02:44:01;12.8;;;6.2;;
72123;SDS011;63818;37.134;-8.548;2023-03-01T02:48:48;11.5;;;6.3;;
72123;SDS011;63818;37.134;-8.548;2023-03-01T02:53:38;13.1;;;6.2;;
72123;SDS011;63818;37.134;-8.548;2023-03-01T02:58:30;13.1;;;6.9;;
72123;SDS011;63818;37.134;-8.548;2023-03-01T03:03:19;13.6;;;7.5;;
72123;SDS011;63818;37.134;-8.548;2023-03-01T03:08:08;12.8;;;7.1;;
72123;SDS011;63818;37.134;-8.548;2023-03-01T03:12:55;13.0;;;7.0;;
72123;SDS011;63818;37.134;-8.548;2023-03-01T03:17:46;12.8;;;6.9;;
72123;SDS011;63818;37.134;-8.548;2023-03-01T03:22:32;12.6;;;6.5;;
72123;SDS011;63818;37.134;-8.548;2023-03-01T03:27:18;12.0;;;6.3;;
72123;SDS011;63818;37.134;-8.548;2023-03-01T03:32:04;11.9;;;6.2;;
72123;SDS011;63818;37.134;-8.548;2023-03-01T03:36:54;16.6;;;6.8;;
72123;SDS011;63818;37.134;-8.548;2023-03-01T03:41:40;18.2;;;6.7;;
72123;SDS011;63818;37.134;-8.548;2023-03-01T03:46:27;13.0;;;6.3;;
72123;SDS011;63818;37.134;-8.548;2023-03-01T03:51:13;11.8;;;6.4;;
72123;SDS011;63818;37.134;-8.548;2023-03-01T03:56:01;12.4;;;6.9;;
72123;SDS011;63818;37.134;-8.548;2023-03-01T04:00:48;10.8;;;6.5;;
72123;SDS011;63818;37.134;-8.548;2023-03-01T04:05:36;12.4;;;6.9;;
72123;SDS011;63818;37.134;-8.548;2023-03-01T04:10:23;15.1;;;7.4;;
72123;SDS011;63818;37.134;-8.548;2023-03-01T04:15:10;13.2;;;6.9;;
72123;SDS011;63818;37.134;-8.548;2023-03-01T04:19:58;11.2;;;7.0;;
72123;SDS011;63818;37.134;-8.548;2023-03-01T04:24:46;10.1;;;6.6;;
72123;SDS011;63818;37.134;-8.548;2023-03-01T04:29:32;11.2;;;6.5;;
72123;SDS011;63818;37.134;-8.548;2023-03-01T04:34:18;18.1;;;7.5;;
72123;SDS011;63818;37.134;-8.548;2023-03-01T04:39:06;16.1;;;7.2;;
72123;SDS011;63818;37.134;-8.548;2023-03-01T04:43:53;12.8;;;7.1;;
72123;SDS011;63818;37.134;-8.548;2023-03-01T04:48:39;13.7;;;7.8;;
72123;SDS011;63818;37.134;-8.548;2023-03-01T04:53:27;12.6;;;8.0;;
72123;SDS011;63818;37.134;-8.548;2023-03-01T04:58:14;13.9;;;8.3;;
72123;SDS011;63818;37.134;-8.548;2023-03-01T05:03:03;15.2;;;8.3;;
72123;SDS011;63818;37.134;-8.548;2023-03-01T05:07:49;17.0;;;8.6;;
72123;SDS011;63818;37.134;-8.548;2023-03-01T05:12:35;18.0;;;8.8;;
72123;SDS011;63818;37.134;-8.548;2023-03-01T05:17:21;14.8;;;8.2;;
72123;SDS011;63818;37.134;-8.548;2023-03-01T05:22:07;12.5;;;8.0;;
72123;SDS011;63818;37.134;-8.548;2023-03-01T05:26:55;14.0;;;8.5;;
72123;SDS011;63818;37.134;-8.548;2023-03-01T05:31:43;13.0;;;9.3;;
72123;SDS011;63818;37.134;-8.548;2023-03-01T05:36:31;12.1;;;9.7;;
72123;SDS011;63818;37.134;-8.548;2023-03-01T05:41:17;12.4;;;9.8;;
72123;SDS011;63818;37.134;-8.548;2023-03-01T05:46:03;11.6;;;9.4;;
72123;SDS011;63818;37.134;-8.548;2023-03-01T05:50:49;11.9;;;10.1;;
72123;SDS011;63818;37.134;-8.548;2023-03-01T05:55:36;12.7;;;11.0;;
72123;SDS011;63818;37.134;-8.548;2023-03-01T06:00:28;12.4;;;10.0;;
72123;SDS011;63818;37.134;-8.548;2023-03-01T06:05:15;12.3;;;10.8;;
72123;SDS011;63818;37.134;-8.548;2023-03-01T06:10:02;12.7;;;11.8;;
72123;SDS011;63818;37.134;-8.548;2023-03-01T06:14:49;15.7;;;11.4;;
72123;SDS011;63818;37.134;-8.548;2023-03-01T06:19:35;17.6;;;13.2;;
72123;SDS011;63818;37.134;-8.548;2023-03-01T06:24:21;15.8;;;14.7;;
72123;SDS011;63818;37.134;-8.548;2023-03-01T06:29:10;15.9;;;14.9;;
72123;SDS011;63818;37.134;-8.548;2023-03-01T06:33:56;15.4;;;14.5;;
72123;SDS011;63818;37.134;-8.548;2023-03-01T06:38:41;14.2;;;13.4;;
72123;SDS011;63818;37.134;-8.548;2023-03-01T06:43:27;15.8;;;14.7;;
72123;SDS011;63818;37.134;-8.548;2023-03-01T06:48:22;15.9;;;14.8;;
72123;SDS011;63818;37.134;-8.548;2023-03-01T06:53:08;15.4;;;13.6;;
72123;SDS011;63818;37.134;-8.548;2023-03-01T06:57:57;16.5;;;14.5;;
72123;SDS011;63818;37.134;-8.548;2023-03-01T07:02:43;17.7;;;14.7;;
72123;SDS011;63818;37.134;-8.548;2023-03-01T07:07:31;18.4;;;15.5;;
72123;SDS011;63818;37.134;-8.548;2023-03-01T07:12:17;17.1;;;15.9;;
72123;SDS011;63818;37.134;-8.548;2023-03-01T07:17:03;16.1;;;14.9;;
72123;SDS011;63818;37.134;-8.548;2023-03-01T07:21:49;16.5;;;15.4;;
72123;SDS011;63818;37.134;-8.548;2023-03-01T07:26:35;17.6;;;15.2;;
72123;SDS011;63818;37.134;-8.548;2023-03-01T07:31:22;18.6;;;16.0;;
72123;SDS011;63818;37.134;-8.548;2023-03-01T07:36:08;18.0;;;16.8;;
72123;SDS011;63818;37.134;-8.548;2023-03-01T07:40:57;17.7;;;16.4;;
72123;SDS011;63818;37.134;-8.548;2023-03-01T07:45:43;19.4;;;16.4;;
72123;SDS011;63818;37.134;-8.548;2023-03-01T07:50:30;18.1;;;14.5;;
72123;SDS011;63818;37.134;-8.548;2023-03-01T07:55:19;16.9;;;14.9;;
72123;SDS011;63818;37.134;-8.548;2023-03-01T08:00:08;18.3;;;17.0;;
72123;SDS011;63818;37.134;-8.548;2023-03-01T08:04:56;16.9;;;15.4;;
72123;SDS011;63818;37.134;-8.548;2023-03-01T08:09:46;17.0;;;14.4;;
72123;SDS011;63818;37.134;-8.548;2023-03-01T08:14:32;17.8;;;14.0;;
72123;SDS011;63818;37.134;-8.548;2023-03-01T08:19:18;18.2;;;13.4;;
72123;SDS011;63818;37.134;-8.548;2023-03-01T08:24:05;18.3;;;13.6;;
72123;SDS011;63818;37.134;-8.548;2023-03-01T08:28:52;16.0;;;12.8;;
72123;SDS011;63818;37.134;-8.548;2023-03-01T08:33:38;15.5;;;11.6;;
72123;SDS011;63818;37.134;-8.548;2023-03-01T08:38:26;17.6;;;11.8;;
72123;SDS011;63818;37.134;-8.548;2023-03-01T08:43:12;16.0;;;12.0;;
72123;SDS011;63818;37.134;-8.548;2023-03-01T08:47:58;13.9;;;11.0;;
72123;SDS011;63818;37.134;-8.548;2023-03-01T08:52:44;17.1;;;10.8;;
72123;SDS011;63818;37.134;-8.548;2023-03-01T08:57:31;14.7;;;10.1;;
72123;SDS011;63818;37.134;-8.548;2023-03-01T09:02:20;12.0;;;10.5;;
72123;SDS011;63818;37.134;-8.548;2023-03-01T09:07:06;15.0;;;11.0;;
72123;SDS011;63818;37.134;-8.548;2023-03-01T09:11:52;14.3;;;10.1;;
72123;SDS011;63818;37.134;-8.548;2023-03-01T09:16:38;14.0;;;9.1;;
72123;SDS011;63818;37.134;-8.548;2023-03-01T09:21:25;16.4;;;9.6;;
72123;SDS011;63818;37.134;-8.548;2023-03-01T09:26:11;14.7;;;9.7;;
72123;SDS011;63818;37.134;-8.548;2023-03-01T09:31:02;12.8;;;9.8;;
72123;SDS011;63818;37.134;-8.548;2023-03-01T09:35:55;13.8;;;8.9;;
72123;SDS011;63818;37.134;-8.548;2023-03-01T09:40:44;12.7;;;7.5;;
72123;SDS011;63818;37.134;-8.548;2023-03-01T09:45:35;12.8;;;8.3;;
72123;SDS011;63818;37.134;-8.548;2023-03-01T09:50:27;11.8;;;7.7;;
72123;SDS011;63818;37.134;-8.548;2023-03-01T09:55:20;10.2;;;6.4;;
72123;SDS011;63818;37.134;-8.548;2023-03-01T10:00:16;10.6;;;6.0;;
72123;SDS011;63818;37.134;-8.548;2023-03-01T10:05:18;9.9;;;7.1;;
72123;SDS011;63818;37.134;-8.548;2023-03-01T10:10:16;10.9;;;8.5;;
72123;SDS011;63818;37.134;-8.548;2023-03-01T10:15:14;11.2;;;8.5;;
72123;SDS011;63818;37.134;-8.548;2023-03-01T10:20:24;10.8;;;8.8;;
72123;SDS011;63818;37.134;-8.548;2023-03-01T10:25:14;10.6;;;8.9;;
72123;SDS011;63818;37.134;-8.548;2023-03-01T10:30:05;10.4;;;8.9;;
72123;SDS011;63818;37.134;-8.548;2023-03-01T10:35:00;9.7;;;8.8;;
72123;SDS011;63818;37.134;-8.548;2023-03-01T10:39:56;9.2;;;8.2;;
72123;SDS011;63818;37.134;-8.548;2023-03-01T10:44:46;9.8;;;8.0;;
72123;SDS011;63818;37.134;-8.548;2023-03-01T10:49:34;9.9;;;8.2;;
72123;SDS011;63818;37.134;-8.548;2023-03-01T10:54:24;10.9;;;8.6;;
72123;SDS011;63818;37.134;-8.548;2023-03-01T10:59:21;10.9;;;8.1;;
72123;SDS011;63818;37.134;-8.548;2023-03-01T11:04:14;9.0;;;7.9;;
72123;SDS011;63818;37.134;-8.548;2023-03-01T11:09:01;8.9;;;7.9;;
72123;SDS011;63818;37.134;-8.548;2023-03-01T11:14:03;8.2;;;6.5;;
72123;SDS011;63818;37.134;-8.548;2023-03-01T11:18:58;7.8;;;5.4;;
72123;SDS011;63818;37.134;-8.548;2023-03-01T11:23:45;8.4;;;5.4;;
72123;SDS011;63818;37.134;-8.548;2023-03-01T11:28:32;9.9;;;5.7;;
72123;SDS011;63818;37.134;-8.548;2023-03-01T11:33:29;9.9;;;5.3;;
72123;SDS011;63818;37.134;-8.548;2023-03-01T11:38:29;9.1;;;5.1;;
72123;SDS011;63818;37.134;-8.548;2023-03-01T11:43:26;9.4;;;5.3;;
72123;SDS011;63818;37.134;-8.548;2023-03-01T11:48:28;9.7;;;5.0;;
72123;SDS011;63818;37.134;-8.548;2023-03-01T11:53:25;10.4;;;5.2;;
72123;SDS011;63818;37.134;-8.548;2023-03-01T11:58:32;10.7;;;5.4;;
72123;SDS011;63818;37.134;-8.548;2023-03-01T12:03:43;10.1;;;4.8;;
72123;SDS011;63818;37.134;-8.548;2023-03-01T12:08:42;9.0;;;4.7;;
72123;SDS011;63818;37.134;-8.548;2023-03-01T12:13:47;8.5;;;5.1;;
72123;SDS011;63818;37.134;-8.548;2023-03-01T12:19:05;8.8;;;5.1;;
72123;SDS011;63818;37.134;-8.548;2023-03-01T12:23:59;9.4;;;4.9;;
72123;SDS011;63818;37.134;-8.548;2023-03-01T12:28:59;10.3;;;4.7;;
72123;SDS011;63818;37.134;-8.548;2023-03-01T12:33:52;11.5;;;5.4;;
72123;SDS011;63818;37.134;-8.548;2023-03-01T12:38:44;11.3;;;5.6;;
72123;SDS011;63818;37.134;-8.548;2023-03-01T12:43:39;9.7;;;4.9;;
72123;SDS011;63818;37.134;-8.548;2023-03-01T12:48:43;9.7;;;4.8;;
72123;SDS011;63818;37.134;-8.548;2023-03-01T12:53:38;9.2;;;4.7;;
72123;SDS011;63818;37.134;-8.548;2023-03-01T12:58:31;9.1;;;4.8;;
72123;SDS011;63818;37.134;-8.548;2023-03-01T13:03:23;9.4;;;5.1;;
72123;SDS011;63818;37.134;-8.548;2023-03-01T13:08:19;10.4;;;5.0;;
72123;SDS011;63818;37.134;-8.548;2023-03-01T13:13:18;11.0;;;5.3;;
72123;SDS011;63818;37.134;-8.548;2023-03-01T13:18:26;10.5;;;5.4;;
72123;SDS011;63818;37.134;-8.548;2023-03-01T13:23:26;9.9;;;5.2;;
72123;SDS011;63818;37.134;-8.548;2023-03-01T13:33:43;11.0;;;4.7;;
72123;SDS011;63818;37.134;-8.548;2023-03-01T13:38:45;11.3;;;5.1;;
72123;SDS011;63818;37.134;-8.548;2023-03-01T13:43:32;10.5;;;5.2;;
72123;SDS011;63818;37.134;-8.548;2023-03-01T13:48:23;9.6;;;4.8;;
72123;SDS011;63818;37.134;-8.548;2023-03-01T13:53:12;9.0;;;4.9;;
72123;SDS011;63818;37.134;-8.548;2023-03-01T13:58:02;8.4;;;5.3;;
72123;SDS011;63818;37.134;-8.548;2023-03-01T14:03:01;8.4;;;5.3;;
72123;SDS011;63818;37.134;-8.548;2023-03-01T14:07:52;11.5;;;5.3;;
72123;SDS011;63818;37.134;-8.548;2023-03-01T14:12:42;12.8;;;5.3;;
72123;SDS011;63818;37.134;-8.548;2023-03-01T14:17:40;12.7;;;5.2;;
72123;SDS011;63818;37.134;-8.548;2023-03-01T14:22:31;11.5;;;5.2;;
72123;SDS011;63818;37.134;-8.548;2023-03-01T14:27:21;9.0;;;4.9;;
72123;SDS011;63818;37.134;-8.548;2023-03-01T14:32:18;13.1;;;5.5;;
72123;SDS011;63818;37.134;-8.548;2023-03-01T14:37:11;15.3;;;5.7;;
72123;SDS011;63818;37.134;-8.548;2023-03-01T14:42:10;12.2;;;5.3;;
72123;SDS011;63818;37.134;-8.548;2023-03-01T14:46:58;12.7;;;5.5;;
72123;SDS011;63818;37.134;-8.548;2023-03-01T14:51:46;12.5;;;5.6;;
72123;SDS011;63818;37.134;-8.548;2023-03-01T14:56:45;11.3;;;5.5;;
72123;SDS011;63818;37.134;-8.548;2023-03-01T15:01:33;13.3;;;5.5;;
72123;SDS011;63818;37.134;-8.548;2023-03-01T15:06:21;13.0;;;5.4;;
72123;SDS011;63818;37.134;-8.548;2023-03-01T15:11:21;12.1;;;5.2;;
72123;SDS011;63818;37.134;-8.548;2023-03-01T15:16:09;12.7;;;5.2;;
72123;SDS011;63818;37.134;-8.548;2023-03-01T15:21:02;10.8;;;5.4;;
72123;SDS011;63818;37.134;-8.548;2023-03-01T15:26:02;9.6;;;5.3;;
72123;SDS011;63818;37.134;-8.548;2023-03-01T15:30:51;12.2;;;5.3;;
72123;SDS011;63818;37.134;-8.548;2023-03-01T15:35:42;14.0;;;5.3;;
72123;SDS011;63818;37.134;-8.548;2023-03-01T15:40:34;12.6;;;5.1;;
72123;SDS011;63818;37.134;-8.548;2023-03-01T15:45:23;13.1;;;5.3;;
72123;SDS011;63818;37.134;-8.548;2023-03-01T15:50:16;13.6;;;5.2;;
72123;SDS011;63818;37.134;-8.548;2023-03-01T15:55:14;9.2;;;4.6;;
72123;SDS011;63818;37.134;-8.548;2023-03-01T16:00:04;7.2;;;4.6;;
72123;SDS011;63818;37.134;-8.548;2023-03-01T16:04:54;8.1;;;4.7;;
72123;SDS011;63818;37.134;-8.548;2023-03-01T16:09:42;8.0;;;4.8;;
72123;SDS011;63818;37.134;-8.548;2023-03-01T16:14:31;7.0;;;4.6;;
72123;SDS011;63818;37.134;-8.548;2023-03-01T16:19:19;8.6;;;4.6;;
72123;SDS011;63818;37.134;-8.548;2023-03-01T16:24:10;10.5;;;4.7;;
72123;SDS011;63818;37.134;-8.548;2023-03-01T16:28:56;9.7;;;4.7;;
72123;SDS011;63818;37.134;-8.548;2023-03-01T16:33:42;9.3;;;4.7;;
72123;SDS011;63818;37.134;-8.548;2023-03-01T16:38:32;9.3;;;4.8;;
72123;SDS011;63818;37.134;-8.548;2023-03-01T16:43:19;8.4;;;4.8;;
72123;SDS011;63818;37.134;-8.548;2023-03-01T16:48:07;7.4;;;4.6;;
72123;SDS011;63818;37.134;-8.548;2023-03-01T16:52:53;7.5;;;4.8;;
72123;SDS011;63818;37.134;-8.548;2023-03-01T16:57:41;14.6;;;5.2;;
72123;SDS011;63818;37.134;-8.548;2023-03-01T17:02:28;14.8;;;5.0;;
72123;SDS011;63818;37.134;-8.548;2023-03-01T17:07:15;9.0;;;4.7;;
72123;SDS011;63818;37.134;-8.548;2023-03-01T17:12:03;8.4;;;4.6;;
72123;SDS011;63818;37.134;-8.548;2023-03-01T17:16:49;9.8;;;4.6;;
72123;SDS011;63818;37.134;-8.548;2023-03-01T17:21:37;11.2;;;4.8;;
72123;SDS011;63818;37.134;-8.548;2023-03-01T17:26:27;10.5;;;5.2;;
72123;SDS011;63818;37.134;-8.548;2023-03-01T17:31:13;10.3;;;5.4;;
72123;SDS011;63818;37.134;-8.548;2023-03-01T17:36:12;9.7;;;5.4;;
72123;SDS011;63818;37.134;-8.548;2023-03-01T17:41:04;8.1;;;4.9;;
72123;SDS011;63818;37.134;-8.548;2023-03-01T17:45:51;7.1;;;4.7;;
72123;SDS011;63818;37.134;-8.548;2023-03-01T17:50:40;7.4;;;4.8;;
72123;SDS011;63818;37.134;-8.548;2023-03-01T17:55:28;7.5;;;4.8;;
72123;SDS011;63818;37.134;-8.548;2023-03-01T18:00:21;7.5;;;4.6;;
72123;SDS011;63818;37.134;-8.548;2023-03-01T18:05:13;8.7;;;4.7;;
72123;SDS011;63818;37.134;-8.548;2023-03-01T18:09:59;8.8;;;4.8;;
72123;SDS011;63818;37.134;-8.548;2023-03-01T18:14:47;12.2;;;5.5;;
72123;SDS011;63818;37.134;-8.548;2023-03-01T18:19:35;14.2;;;6.0;;
72123;SDS011;63818;37.134;-8.548;2023-03-01T18:24:26;10.2;;;5.4;;
72123;SDS011;63818;37.134;-8.548;2023-03-01T18:29:16;9.8;;;5.2;;
72123;SDS011;63818;37.134;-8.548;2023-03-01T18:34:08;11.4;;;5.2;;
72123;SDS011;63818;37.134;-8.548;2023-03-01T18:38:56;11.5;;;5.8;;
72123;SDS011;63818;37.134;-8.548;2023-03-01T18:43:42;11.9;;;6.0;;
72123;SDS011;63818;37.134;-8.548;2023-03-01T18:48:30;14.1;;;5.5;;
72123;SDS011;63818;37.134;-8.548;2023-03-01T18:53:16;14.9;;;6.0;;
72123;SDS011;63818;37.134;-8.548;2023-03-01T18:58:08;17.4;;;6.6;;
72123;SDS011;63818;37.134;-8.548;2023-03-01T19:03:06;14.5;;;6.0;;
72123;SDS011;63818;37.134;-8.548;2023-03-01T19:07:52;11.1;;;5.5;;
72123;SDS011;63818;37.134;-8.548;2023-03-01T19:12:38;12.9;;;5.7;;
72123;SDS011;63818;37.134;-8.548;2023-03-01T19:17:24;10.5;;;5.6;;
72123;SDS011;63818;37.134;-8.548;2023-03-01T19:22:10;10.8;;;5.9;;
72123;SDS011;63818;37.134;-8.548;2023-03-01T19:26:58;14.3;;;6.4;;
72123;SDS011;63818;37.134;-8.548;2023-03-01T19:31:44;17.7;;;7.1;;
72123;SDS011;63818;37.134;-8.548;2023-03-01T19:36:30;17.9;;;7.8;;
72123;SDS011;63818;37.134;-8.548;2023-03-01T19:41:18;16.9;;;7.6;;
72123;SDS011;63818;37.134;-8.548;2023-03-01T19:46:04;18.4;;;7.4;;
72123;SDS011;63818;37.134;-8.548;2023-03-01T19:50:51;16.2;;;7.0;;
72123;SDS011;63818;37.134;-8.548;2023-03-01T19:55:38;13.2;;;6.5;;
72123;SDS011;63818;37.134;-8.548;2023-03-01T20:00:24;13.3;;;6.8;;
72123;SDS011;63818;37.134;-8.548;2023-03-01T20:05:10;14.2;;;6.9;;
72123;SDS011;63818;37.134;-8.548;2023-03-01T20:09:56;12.9;;;6.1;;
72123;SDS011;63818;37.134;-8.548;2023-03-01T20:14:42;11.9;;;5.7;;
72123;SDS011;63818;37.134;-8.548;2023-03-01T20:19:28;14.0;;;5.9;;
72123;SDS011;63818;37.134;-8.548;2023-03-01T20:24:14;14.8;;;6.2;;
72123;SDS011;63818;37.134;-8.548;2023-03-01T20:29:00;17.2;;;6.8;;
72123;SDS011;63818;37.134;-8.548;2023-03-01T20:33:46;16.0;;;7.2;;
72123;SDS011;63818;37.134;-8.548;2023-03-01T20:38:32;12.4;;;6.9;;
72123;SDS011;63818;37.134;-8.548;2023-03-01T20:43:19;13.1;;;6.5;;
72123;SDS011;63818;37.134;-8.548;2023-03-01T20:48:05;11.8;;;6.4;;
72123;SDS011;63818;37.134;-8.548;2023-03-01T20:52:51;13.5;;;6.5;;
72123;SDS011;63818;37.134;-8.548;2023-03-01T20:57:37;15.6;;;6.9;;
72123;SDS011;63818;37.134;-8.548;2023-03-01T21:02:25;14.1;;;7.3;;
72123;SDS011;63818;37.134;-8.548;2023-03-01T21:07:12;15.1;;;6.8;;
72123;SDS011;63818;37.134;-8.548;2023-03-01T21:11:58;13.3;;;6.4;;
72123;SDS011;63818;37.134;-8.548;2023-03-01T21:16:46;13.8;;;6.7;;
72123;SDS011;63818;37.134;-8.548;2023-03-01T21:21:32;14.8;;;6.6;;
72123;SDS011;63818;37.134;-8.548;2023-03-01T21:26:18;16.3;;;6.5;;
72123;SDS011;63818;37.134;-8.548;2023-03-01T21:31:21;16.4;;;6.3;;
72123;SDS011;63818;37.134;-8.548;2023-03-01T21:36:09;12.3;;;6.4;;
72123;SDS011;63818;37.134;-8.548;2023-03-01T21:40:57;12.3;;;6.5;;
72123;SDS011;63818;37.134;-8.548;2023-03-01T21:45:47;10.7;;;6.1;;
72123;SDS011;63818;37.134;-8.548;2023-03-01T21:50:34;10.2;;;6.0;;
72123;SDS011;63818;37.134;-8.548;2023-03-01T21:55:21;11.4;;;6.3;;
72123;SDS011;63818;37.134;-8.548;2023-03-01T22:00:08;11.5;;;6.4;;
72123;SDS011;63818;37.134;-8.548;2023-03-01T22:04:54;15.3;;;6.7;;
72123;SDS011;63818;37.134;-8.548;2023-03-01T22:09:48;16.0;;;6.5;;
72123;SDS011;63818;37.134;-8.548;2023-03-01T22:14:34;14.6;;;5.9;;
72123;SDS011;63818;37.134;-8.548;2023-03-01T22:19:20;12.4;;;5.7;;
72123;SDS011;63818;37.134;-8.548;2023-03-01T22:24:07;11.3;;;6.3;;
72123;SDS011;63818;37.134;-8.548;2023-03-01T22:28:55;13.8;;;6.9;;
72123;SDS011;63818;37.134;-8.548;2023-03-01T22:33:42;18.1;;;8.2;;
72123;SDS011;63818;37.134;-8.548;2023-03-01T22:38:31;20.3;;;8.9;;
72123;SDS011;63818;37.134;-8.548;2023-03-01T22:43:29;19.5;;;9.0;;
72123;SDS011;63818;37.134;-8.548;2023-03-01T22:48:17;21.1;;;10.3;;
72123;SDS011;63818;37.134;-8.548;2023-03-01T22:53:03;20.4;;;10.3;;
72123;SDS011;63818;37.134;-8.548;2023-03-01T22:57:50;18.3;;;9.3;;
72123;SDS011;63818;37.134;-8.548;2023-03-01T23:02:36;16.1;;;8.7;;
72123;SDS011;63818;37.134;-8.548;2023-03-01T23:07:22;14.1;;;8.8;;
72123;SDS011;63818;37.134;-8.548;2023-03-01T23:12:09;13.5;;;8.8;;
72123;SDS011;63818;37.134;-8.548;2023-03-01T23:16:55;13.6;;;9.4;;
72123;SDS011;63818;37.134;-8.548;2023-03-01T23:21:41;13.8;;;8.6;;
72123;SDS011;63818;37.134;-8.548;2023-03-01T23:26:28;15.1;;;7.3;;
72123;SDS011;63818;37.134;-8.548;2023-03-01T23:31:23;14.4;;;7.1;;
72123;SDS011;63818;37.134;-8.548;2023-03-01T23:36:33;14.8;;;8.1;;
72123;SDS011;63818;37.134;-8.548;2023-03-01T23:41:22;16.0;;;9.1;;
72123;SDS011;63818;37.134;-8.548;2023-03-01T23:46:09;18.5;;;9.0;;
72123;SDS011;63818;37.134;-8.548;2023-03-01T23:50:58;16.2;;;8.4;;
72123;SDS011;63818;37.134;-8.548;2023-03-01T23:55:49;10.4;;;8.5;;
